Bowler, Wisconsin
Current Conditions -  °F | °C
As of 5:35 AM on Friday 24 Oct 2014 (Local Time) from KCLI Reporting Station
Haze Haze  
Wind Chill:   Ceiling: 300
Heat Index:   Visibility: 5mi
Dew Point:   Wind: 5mph
Humidity: 93%   Direction: 270°W
Pressure: 30.02"   Gusts: NA
Location:  44.86°N, 88.98°W
Report Text: KCLI 241035Z AUTO 27004KT 5SM BR OVC003 08/07 A3002 RMK AO2
Loading
Personal Weather Stations






























Interactive Weather Map
Tropical Storm Tracking
New forecast layout! Learn more

10-Day Weather Forecast

Advertisements
Track Severe Weather on mobile